sensor_id;sensor_type;location;lat;lon;timestamp;P1;P2;P0
72854;PMS7003;60991;51.278;22.550;2022-10-15T00:00:09;31.50;28.25;13.75
72854;PMS7003;60991;51.278;22.550;2022-10-15T00:01:40;33.00;29.50;16.00
72854;PMS7003;60991;51.278;22.550;2022-10-15T00:03:10;32.50;26.75;17.25
72854;PMS7003;60991;51.278;22.550;2022-10-15T00:04:40;27.00;27.00;17.25
72854;PMS7003;60991;51.278;22.550;2022-10-15T00:06:12;31.50;29.25;17.50
72854;PMS7003;60991;51.278;22.550;2022-10-15T00:07:44;30.25;28.25;17.25
72854;PMS7003;60991;51.278;22.550;2022-10-15T00:09:14;40.00;29.75;18.25
72854;PMS7003;60991;51.278;22.550;2022-10-15T00:10:44;38.50;32.50;17.50
72854;PMS7003;60991;51.278;22.550;2022-10-15T00:12:15;31.00;29.00;17.25
72854;PMS7003;60991;51.278;22.550;2022-10-15T00:13:45;30.25;30.25;21.00
72854;PMS7003;60991;51.278;22.550;2022-10-15T00:15:15;35.25;29.00;14.75
72854;PMS7003;60991;51.278;22.550;2022-10-15T00:16:46;30.25;26.00;17.50
72854;PMS7003;60991;51.278;22.550;2022-10-15T00:18:16;32.75;30.50;17.50
72854;PMS7003;60991;51.278;22.550;2022-10-15T00:19:46;31.25;27.75;17.75
72854;PMS7003;60991;51.278;22.550;2022-10-15T00:21:17;36.00;26.75;17.75
72854;PMS7003;60991;51.278;22.550;2022-10-15T00:22:49;36.50;26.25;18.25
72854;PMS7003;60991;51.278;22.550;2022-10-15T00:24:19;32.00;28.25;18.75
72854;PMS7003;60991;51.278;22.550;2022-10-15T00:25:49;29.50;23.25;13.75
72854;PMS7003;60991;51.278;22.550;2022-10-15T00:27:19;24.50;22.25;15.50
72854;PMS7003;60991;51.278;22.550;2022-10-15T00:28:50;28.25;22.75;14.75
72854;PMS7003;60991;51.278;22.550;2022-10-15T00:30:24;28.75;27.25;16.75
72854;PMS7003;60991;51.278;22.550;2022-10-15T00:31:54;23.25;23.25;14.25
72854;PMS7003;60991;51.278;22.550;2022-10-15T00:33:24;29.00;23.50;14.50
72854;PMS7003;60991;51.278;22.550;2022-10-15T00:34:54;29.00;24.50;15.75
72854;PMS7003;60991;51.278;22.550;2022-10-15T00:36:26;28.50;26.50;18.00
72854;PMS7003;60991;51.278;22.550;2022-10-15T00:38:01;28.25;28.00;19.50
72854;PMS7003;60991;51.278;22.550;2022-10-15T00:39:31;31.50;29.75;19.25
72854;PMS7003;60991;51.278;22.550;2022-10-15T00:41:02;29.50;29.25;16.25
72854;PMS7003;60991;51.278;22.550;2022-10-15T00:42:33;29.50;25.75;15.50
72854;PMS7003;60991;51.278;22.550;2022-10-15T00:45:52;28.00;23.75;14.00
72854;PMS7003;60991;51.278;22.550;2022-10-15T00:47:27;29.50;27.00;15.75
72854;PMS7003;60991;51.278;22.550;2022-10-15T00:49:03;27.50;24.50;14.00
72854;PMS7003;60991;51.278;22.550;2022-10-15T00:50:51;32.00;27.75;14.25
72854;PMS7003;60991;51.278;22.550;2022-10-15T00:52:22;27.00;23.25;15.00
72854;PMS7003;60991;51.278;22.550;2022-10-15T00:53:58;24.50;24.50;15.50
72854;PMS7003;60991;51.278;22.550;2022-10-15T00:55:33;28.75;24.75;15.50
72854;PMS7003;60991;51.278;22.550;2022-10-15T00:57:07;31.75;27.00;14.75
72854;PMS7003;60991;51.278;22.550;2022-10-15T00:58:39;27.50;24.50;15.00
72854;PMS7003;60991;51.278;22.550;2022-10-15T01:00:10;26.25;22.75;15.25
72854;PMS7003;60991;51.278;22.550;2022-10-15T01:01:42;27.25;27.00;15.00
72854;PMS7003;60991;51.278;22.550;2022-10-15T01:03:13;25.25;21.50;15.00
72854;PMS7003;60991;51.278;22.550;2022-10-15T01:04:43;21.50;21.00;13.25
72854;PMS7003;60991;51.278;22.550;2022-10-15T01:06:14;24.00;21.00;15.50
72854;PMS7003;60991;51.278;22.550;2022-10-15T01:07:45;21.00;20.00;13.75
72854;PMS7003;60991;51.278;22.550;2022-10-15T01:09:15;24.25;23.50;14.25
72854;PMS7003;60991;51.278;22.550;2022-10-15T01:16:31;21.00;20.00;13.50
72854;PMS7003;60991;51.278;22.550;2022-10-15T01:18:13;26.25;24.00;15.50
72854;PMS7003;60991;51.278;22.550;2022-10-15T01:21:40;31.25;24.75;14.25
72854;PMS7003;60991;51.278;22.550;2022-10-15T01:25:13;29.25;23.50;14.50
72854;PMS7003;60991;51.278;22.550;2022-10-15T01:28:47;30.00;27.00;16.25
72854;PMS7003;60991;51.278;22.550;2022-10-15T01:34:13;30.75;26.25;13.75
72854;PMS7003;60991;51.278;22.550;2022-10-15T01:36:16;21.75;20.00;15.00
72854;PMS7003;60991;51.278;22.550;2022-10-15T01:39:38;29.75;27.00;17.50
72854;PMS7003;60991;51.278;22.550;2022-10-15T01:41:27;25.75;21.75;14.75
72854;PMS7003;60991;51.278;22.550;2022-10-15T01:43:10;26.75;24.25;15.75
72854;PMS7003;60991;51.278;22.550;2022-10-15T01:44:49;29.50;24.00;15.25
72854;PMS7003;60991;51.278;22.550;2022-10-15T01:46:27;31.50;28.50;17.25
72854;PMS7003;60991;51.278;22.550;2022-10-15T01:48:09;32.25;23.00;15.75
72854;PMS7003;60991;51.278;22.550;2022-10-15T01:49:42;28.50;25.25;15.00
72854;PMS7003;60991;51.278;22.550;2022-10-15T01:51:14;31.25;29.25;17.50
72854;PMS7003;60991;51.278;22.550;2022-10-15T01:52:47;26.75;23.00;15.00
72854;PMS7003;60991;51.278;22.550;2022-10-15T01:54:20;27.00;23.00;15.50
72854;PMS7003;60991;51.278;22.550;2022-10-15T01:55:55;23.00;20.25;13.00
72854;PMS7003;60991;51.278;22.550;2022-10-15T01:57:28;32.25;27.25;14.50
72854;PMS7003;60991;51.278;22.550;2022-10-15T01:59:01;25.75;21.00;13.75
72854;PMS7003;60991;51.278;22.550;2022-10-15T02:00:33;26.75;24.75;15.50
72854;PMS7003;60991;51.278;22.550;2022-10-15T02:02:03;28.75;24.50;16.00
72854;PMS7003;60991;51.278;22.550;2022-10-15T02:03:47;27.67;24.67;17.00
72854;PMS7003;60991;51.278;22.550;2022-10-15T02:05:20;30.25;26.00;15.50
72854;PMS7003;60991;51.278;22.550;2022-10-15T02:07:01;28.75;23.75;15.50
72854;PMS7003;60991;51.278;22.550;2022-10-15T02:10:26;25.25;21.75;15.00
72854;PMS7003;60991;51.278;22.550;2022-10-15T02:12:11;21.75;21.00;14.50
72854;PMS7003;60991;51.278;22.550;2022-10-15T02:14:03;37.00;26.75;15.50
72854;PMS7003;60991;51.278;22.550;2022-10-15T02:17:13;28.25;25.50;14.00
72854;PMS7003;60991;51.278;22.550;2022-10-15T02:19:05;31.75;28.50;18.00
72854;PMS7003;60991;51.278;22.550;2022-10-15T02:22:36;32.50;28.25;17.50
72854;PMS7003;60991;51.278;22.550;2022-10-15T02:24:14;31.75;29.25;15.00
72854;PMS7003;60991;51.278;22.550;2022-10-15T02:25:50;25.50;23.50;14.50
72854;PMS7003;60991;51.278;22.550;2022-10-15T02:27:22;32.25;29.25;17.25
72854;PMS7003;60991;51.278;22.550;2022-10-15T02:28:56;33.25;30.50;15.00
72854;PMS7003;60991;51.278;22.550;2022-10-15T02:30:28;35.50;28.25;17.00
72854;PMS7003;60991;51.278;22.550;2022-10-15T02:32:00;27.00;24.00;14.00
72854;PMS7003;60991;51.278;22.550;2022-10-15T02:33:32;22.25;18.75;13.25
72854;PMS7003;60991;51.278;22.550;2022-10-15T02:35:04;25.75;25.75;17.50
72854;PMS7003;60991;51.278;22.550;2022-10-15T02:36:40;30.00;27.50;16.75
72854;PMS7003;60991;51.278;22.550;2022-10-15T02:38:12;33.00;24.25;15.25
72854;PMS7003;60991;51.278;22.550;2022-10-15T02:39:46;24.75;23.75;15.75
72854;PMS7003;60991;51.278;22.550;2022-10-15T02:41:16;27.00;23.50;15.00
72854;PMS7003;60991;51.278;22.550;2022-10-15T02:42:50;28.00;26.00;17.50
72854;PMS7003;60991;51.278;22.550;2022-10-15T02:44:20;28.50;26.75;17.00
72854;PMS7003;60991;51.278;22.550;2022-10-15T02:45:51;26.25;25.50;14.75
72854;PMS7003;60991;51.278;22.550;2022-10-15T02:47:21;28.00;24.75;14.50
72854;PMS7003;60991;51.278;22.550;2022-10-15T02:48:51;29.00;26.00;15.00
72854;PMS7003;60991;51.278;22.550;2022-10-15T02:50:21;25.25;22.50;15.75
72854;PMS7003;60991;51.278;22.550;2022-10-15T02:51:52;24.75;21.00;13.00
72854;PMS7003;60991;51.278;22.550;2022-10-15T02:53:22;29.00;26.00;15.00
72854;PMS7003;60991;51.278;22.550;2022-10-15T02:54:52;24.75;23.00;15.75
72854;PMS7003;60991;51.278;22.550;2022-10-15T02:56:22;26.50;23.00;13.50
72854;PMS7003;60991;51.278;22.550;2022-10-15T02:57:52;22.75;20.75;15.00
72854;PMS7003;60991;51.278;22.550;2022-10-15T02:59:23;25.00;19.50;14.50
72854;PMS7003;60991;51.278;22.550;2022-10-15T03:00:53;31.50;26.00;16.00
72854;PMS7003;60991;51.278;22.550;2022-10-15T03:02:23;26.00;20.50;14.00
72854;PMS7003;60991;51.278;22.550;2022-10-15T03:03:53;30.50;25.75;16.75
72854;PMS7003;60991;51.278;22.550;2022-10-15T03:05:24;28.33;21.33;14.00
72854;PMS7003;60991;51.278;22.550;2022-10-15T03:06:54;25.25;23.00;13.50
72854;PMS7003;60991;51.278;22.550;2022-10-15T03:08:24;27.25;24.25;14.75
72854;PMS7003;60991;51.278;22.550;2022-10-15T03:09:54;24.50;21.50;14.00
72854;PMS7003;60991;51.278;22.550;2022-10-15T03:11:25;24.75;22.50;14.25
72854;PMS7003;60991;51.278;22.550;2022-10-15T03:13:00;24.25;22.25;13.00
72854;PMS7003;60991;51.278;22.550;2022-10-15T03:14:31;24.50;21.25;13.75
72854;PMS7003;60991;51.278;22.550;2022-10-15T03:16:04;24.25;22.50;14.25
72854;PMS7003;60991;51.278;22.550;2022-10-15T03:17:36;20.25;16.75;9.75
72854;PMS7003;60991;51.278;22.550;2022-10-15T03:19:06;21.50;21.50;13.75
72854;PMS7003;60991;51.278;22.550;2022-10-15T03:20:36;30.25;23.75;16.25
72854;PMS7003;60991;51.278;22.550;2022-10-15T03:22:06;25.00;21.75;14.00
72854;PMS7003;60991;51.278;22.550;2022-10-15T03:23:37;24.00;19.25;12.25
72854;PMS7003;60991;51.278;22.550;2022-10-15T03:25:07;25.75;23.75;16.25
72854;PMS7003;60991;51.278;22.550;2022-10-15T03:26:37;21.75;20.25;13.50
72854;PMS7003;60991;51.278;22.550;2022-10-15T03:28:07;28.75;22.50;14.25
72854;PMS7003;60991;51.278;22.550;2022-10-15T03:29:38;17.75;14.00;7.50
72854;PMS7003;60991;51.278;22.550;2022-10-15T03:31:08;22.50;20.25;13.50
72854;PMS7003;60991;51.278;22.550;2022-10-15T03:32:38;31.75;24.50;13.75
72854;PMS7003;60991;51.278;22.550;2022-10-15T03:34:08;25.75;25.00;13.50
72854;PMS7003;60991;51.278;22.550;2022-10-15T03:35:39;24.75;20.75;12.00
72854;PMS7003;60991;51.278;22.550;2022-10-15T03:37:09;21.25;19.25;12.00
72854;PMS7003;60991;51.278;22.550;2022-10-15T03:38:39;25.50;22.50;14.00
72854;PMS7003;60991;51.278;22.550;2022-10-15T03:40:10;25.50;23.00;14.00
72854;PMS7003;60991;51.278;22.550;2022-10-15T03:41:40;23.00;22.25;14.50
72854;PMS7003;60991;51.278;22.550;2022-10-15T03:43:10;20.50;20.25;13.00
72854;PMS7003;60991;51.278;22.550;2022-10-15T03:44:40;23.00;21.75;14.25
72854;PMS7003;60991;51.278;22.550;2022-10-15T03:46:11;24.25;24.25;15.00
72854;PMS7003;60991;51.278;22.550;2022-10-15T03:47:41;19.50;19.25;13.00
72854;PMS7003;60991;51.278;22.550;2022-10-15T03:49:11;22.75;19.50;13.00
72854;PMS7003;60991;51.278;22.550;2022-10-15T03:50:41;22.00;20.25;13.75
72854;PMS7003;60991;51.278;22.550;2022-10-15T03:52:12;20.75;19.00;12.00
72854;PMS7003;60991;51.278;22.550;2022-10-15T03:53:42;22.50;21.25;14.75
72854;PMS7003;60991;51.278;22.550;2022-10-15T03:55:13;26.50;23.25;15.75
72854;PMS7003;60991;51.278;22.550;2022-10-15T03:56:43;21.75;21.50;14.00
72854;PMS7003;60991;51.278;22.550;2022-10-15T03:58:13;25.75;22.00;14.50
72854;PMS7003;60991;51.278;22.550;2022-10-15T03:59:43;23.25;18.50;12.75
72854;PMS7003;60991;51.278;22.550;2022-10-15T04:01:14;29.25;22.25;14.75
72854;PMS7003;60991;51.278;22.550;2022-10-15T04:02:46;25.50;20.50;13.00
72854;PMS7003;60991;51.278;22.550;2022-10-15T04:04:16;25.75;22.00;14.00
72854;PMS7003;60991;51.278;22.550;2022-10-15T04:05:52;28.25;24.75;14.25
72854;PMS7003;60991;51.278;22.550;2022-10-15T04:07:22;22.75;22.75;13.75
72854;PMS7003;60991;51.278;22.550;2022-10-15T04:08:53;26.00;19.75;13.50
72854;PMS7003;60991;51.278;22.550;2022-10-15T04:10:23;19.25;16.25;13.25
72854;PMS7003;60991;51.278;22.550;2022-10-15T04:11:53;26.50;22.50;14.00
72854;PMS7003;60991;51.278;22.550;2022-10-15T04:13:24;22.67;18.67;13.00
72854;PMS7003;60991;51.278;22.550;2022-10-15T04:14:55;25.00;18.75;11.00
72854;PMS7003;60991;51.278;22.550;2022-10-15T04:16:25;23.25;19.75;12.75
72854;PMS7003;60991;51.278;22.550;2022-10-15T04:17:55;18.75;18.25;13.00
72854;PMS7003;60991;51.278;22.550;2022-10-15T04:19:26;19.25;16.50;13.00
72854;PMS7003;60991;51.278;22.550;2022-10-15T04:20:59;18.25;18.25;13.00
72854;PMS7003;60991;51.278;22.550;2022-10-15T04:22:29;24.25;23.25;15.50
72854;PMS7003;60991;51.278;22.550;2022-10-15T04:24:00;24.00;19.25;12.75
72854;PMS7003;60991;51.278;22.550;2022-10-15T04:25:30;26.75;22.75;12.75
72854;PMS7003;60991;51.278;22.550;2022-10-15T04:27:00;19.25;18.25;11.50
72854;PMS7003;60991;51.278;22.550;2022-10-15T04:28:30;22.00;18.50;12.25
72854;PMS7003;60991;51.278;22.550;2022-10-15T04:30:01;27.00;23.50;12.25
72854;PMS7003;60991;51.278;22.550;2022-10-15T04:31:31;25.00;20.75;11.50
72854;PMS7003;60991;51.278;22.550;2022-10-15T04:33:01;21.50;21.00;13.00
72854;PMS7003;60991;51.278;22.550;2022-10-15T04:34:31;22.75;20.50;12.00
72854;PMS7003;60991;51.278;22.550;2022-10-15T04:36:06;23.25;19.75;12.75
72854;PMS7003;60991;51.278;22.550;2022-10-15T04:37:40;20.00;20.00;12.75
72854;PMS7003;60991;51.278;22.550;2022-10-15T04:39:11;13.25;13.25;11.00
72854;PMS7003;60991;51.278;22.550;2022-10-15T04:40:41;18.25;15.75;12.00
72854;PMS7003;60991;51.278;22.550;2022-10-15T04:42:11;23.50;21.75;13.00
72854;PMS7003;60991;51.278;22.550;2022-10-15T04:43:41;18.50;17.25;12.25
72854;PMS7003;60991;51.278;22.550;2022-10-15T04:45:11;24.50;22.50;14.25
72854;PMS7003;60991;51.278;22.550;2022-10-15T04:46:42;21.00;19.75;13.00
72854;PMS7003;60991;51.278;22.550;2022-10-15T04:48:12;23.25;21.00;13.00
72854;PMS7003;60991;51.278;22.550;2022-10-15T04:49:42;18.00;15.75;11.50
72854;PMS7003;60991;51.278;22.550;2022-10-15T04:51:21;21.50;19.50;13.00
72854;PMS7003;60991;51.278;22.550;2022-10-15T04:52:53;18.50;18.50;14.25
72854;PMS7003;60991;51.278;22.550;2022-10-15T04:54:23;21.25;20.50;14.00
72854;PMS7003;60991;51.278;22.550;2022-10-15T04:55:58;22.67;20.00;14.00
72854;PMS7003;60991;51.278;22.550;2022-10-15T04:57:30;27.25;23.75;13.25
72854;PMS7003;60991;51.278;22.550;2022-10-15T04:59:00;23.50;22.25;13.00
72854;PMS7003;60991;51.278;22.550;2022-10-15T05:00:30;28.25;19.50;12.50
72854;PMS7003;60991;51.278;22.550;2022-10-15T05:02:00;25.50;21.50;14.50
72854;PMS7003;60991;51.278;22.550;2022-10-15T05:03:31;25.25;21.25;13.00
72854;PMS7003;60991;51.278;22.550;2022-10-15T05:05:02;20.50;17.50;10.00
72854;PMS7003;60991;51.278;22.550;2022-10-15T05:06:33;24.25;21.75;13.25
72854;PMS7003;60991;51.278;22.550;2022-10-15T05:08:03;18.75;18.00;11.00
72854;PMS7003;60991;51.278;22.550;2022-10-15T05:09:34;23.75;19.00;13.00
72854;PMS7003;60991;51.278;22.550;2022-10-15T05:11:05;22.75;18.50;12.00
72854;PMS7003;60991;51.278;22.550;2022-10-15T05:12:37;20.75;19.75;12.50
72854;PMS7003;60991;51.278;22.550;2022-10-15T05:14:07;26.75;22.00;14.00
72854;PMS7003;60991;51.278;22.550;2022-10-15T05:15:37;23.00;20.75;13.00
72854;PMS7003;60991;51.278;22.550;2022-10-15T05:17:07;23.00;21.00;14.00
72854;PMS7003;60991;51.278;22.550;2022-10-15T05:18:38;20.75;19.00;12.75
72854;PMS7003;60991;51.278;22.550;2022-10-15T05:20:09;24.00;22.00;13.75
72854;PMS7003;60991;51.278;22.550;2022-10-15T05:21:39;21.25;19.00;12.00
72854;PMS7003;60991;51.278;22.550;2022-10-15T05:23:09;19.00;17.25;9.50
72854;PMS7003;60991;51.278;22.550;2022-10-15T05:24:40;25.00;20.25;13.50
72854;PMS7003;60991;51.278;22.550;2022-10-15T05:26:11;26.50;22.50;14.00
72854;PMS7003;60991;51.278;22.550;2022-10-15T05:27:45;23.00;22.75;15.25
72854;PMS7003;60991;51.278;22.550;2022-10-15T05:29:16;30.25;23.50;14.00
72854;PMS7003;60991;51.278;22.550;2022-10-15T05:30:46;18.25;14.00;9.50
72854;PMS7003;60991;51.278;22.550;2022-10-15T05:32:16;23.67;18.00;11.33
72854;PMS7003;60991;51.278;22.550;2022-10-15T05:33:47;23.25;20.00;14.00
72854;PMS7003;60991;51.278;22.550;2022-10-15T05:35:19;21.00;20.25;12.25
72854;PMS7003;60991;51.278;22.550;2022-10-15T05:36:50;23.50;22.00;12.50
72854;PMS7003;60991;51.278;22.550;2022-10-15T05:38:20;21.33;20.00;14.00
72854;PMS7003;60991;51.278;22.550;2022-10-15T05:39:50;23.75;21.50;13.50
72854;PMS7003;60991;51.278;22.550;2022-10-15T05:41:21;26.00;20.00;12.50
72854;PMS7003;60991;51.278;22.550;2022-10-15T05:42:52;24.00;22.00;13.25
72854;PMS7003;60991;51.278;22.550;2022-10-15T05:44:22;29.25;22.50;15.50
72854;PMS7003;60991;51.278;22.550;2022-10-15T05:45:53;25.00;20.25;13.75
72854;PMS7003;60991;51.278;22.550;2022-10-15T05:47:24;21.75;20.00;13.00
72854;PMS7003;60991;51.278;22.550;2022-10-15T05:48:55;27.75;25.00;13.75
72854;PMS7003;60991;51.278;22.550;2022-10-15T05:50:26;25.75;19.50;13.00
72854;PMS7003;60991;51.278;22.550;2022-10-15T05:51:56;17.75;16.25;11.25
72854;PMS7003;60991;51.278;22.550;2022-10-15T05:53:26;23.25;20.00;13.50
72854;PMS7003;60991;51.278;22.550;2022-10-15T05:54:57;20.00;19.00;12.25
72854;PMS7003;60991;51.278;22.550;2022-10-15T05:56:27;22.67;20.00;12.67
72854;PMS7003;60991;51.278;22.550;2022-10-15T05:57:59;16.75;16.25;10.50
72854;PMS7003;60991;51.278;22.550;2022-10-15T05:59:31;21.50;21.50;15.25
72854;PMS7003;60991;51.278;22.550;2022-10-15T06:01:02;22.75;19.75;11.50
72854;PMS7003;60991;51.278;22.550;2022-10-15T06:02:34;21.25;20.50;13.50
72854;PMS7003;60991;51.278;22.550;2022-10-15T06:04:04;16.00;15.75;12.00
72854;PMS7003;60991;51.278;22.550;2022-10-15T06:05:34;23.75;21.75;13.75
72854;PMS7003;60991;51.278;22.550;2022-10-15T06:07:05;24.75;20.25;13.00
72854;PMS7003;60991;51.278;22.550;2022-10-15T06:08:35;21.75;21.50;14.00
72854;PMS7003;60991;51.278;22.550;2022-10-15T06:10:05;24.00;20.25;13.00
72854;PMS7003;60991;51.278;22.550;2022-10-15T06:11:36;25.75;19.75;12.00
72854;PMS7003;60991;51.278;22.550;2022-10-15T06:13:06;21.25;20.00;13.00
72854;PMS7003;60991;51.278;22.550;2022-10-15T06:14:36;24.75;21.75;13.00
72854;PMS7003;60991;51.278;22.550;2022-10-15T06:16:07;26.00;23.00;12.00
72854;PMS7003;60991;51.278;22.550;2022-10-15T06:17:38;26.25;23.75;14.25
72854;PMS7003;60991;51.278;22.550;2022-10-15T06:19:08;19.33;17.67;12.33
72854;PMS7003;60991;51.278;22.550;2022-10-15T06:20:38;23.00;21.00;13.00
72854;PMS7003;60991;51.278;22.550;2022-10-15T06:22:08;26.75;22.50;13.00
72854;PMS7003;60991;51.278;22.550;2022-10-15T06:23:38;23.00;19.75;12.00
72854;PMS7003;60991;51.278;22.550;2022-10-15T06:25:09;22.00;20.50;13.25
72854;PMS7003;60991;51.278;22.550;2022-10-15T06:26:39;27.25;22.75;14.50
72854;PMS7003;60991;51.278;22.550;2022-10-15T06:28:09;21.00;20.00;12.00
72854;PMS7003;60991;51.278;22.550;2022-10-15T06:29:39;24.25;23.50;14.00
72854;PMS7003;60991;51.278;22.550;2022-10-15T06:31:10;19.75;18.50;13.00
72854;PMS7003;60991;51.278;22.550;2022-10-15T06:32:45;25.00;22.25;13.00
72854;PMS7003;60991;51.278;22.550;2022-10-15T06:34:16;22.50;22.00;14.75
72854;PMS7003;60991;51.278;22.550;2022-10-15T06:35:47;24.25;23.75;15.00
72854;PMS7003;60991;51.278;22.550;2022-10-15T06:37:17;29.25;24.00;14.00
72854;PMS7003;60991;51.278;22.550;2022-10-15T06:38:47;26.75;23.25;14.75
72854;PMS7003;60991;51.278;22.550;2022-10-15T06:40:17;26.00;23.50;15.50
72854;PMS7003;60991;51.278;22.550;2022-10-15T06:41:47;25.75;22.25;13.25
72854;PMS7003;60991;51.278;22.550;2022-10-15T06:43:18;26.50;22.50;16.75
72854;PMS7003;60991;51.278;22.550;2022-10-15T06:44:48;25.25;21.50;14.75
72854;PMS7003;60991;51.278;22.550;2022-10-15T06:46:18;27.75;23.25;14.50
72854;PMS7003;60991;51.278;22.550;2022-10-15T06:47:48;26.00;26.00;15.00
72854;PMS7003;60991;51.278;22.550;2022-10-15T06:49:19;24.25;22.50;13.50
72854;PMS7003;60991;51.278;22.550;2022-10-15T06:50:49;26.75;22.00;13.25
72854;PMS7003;60991;51.278;22.550;2022-10-15T06:52:19;24.25;22.50;14.25
72854;PMS7003;60991;51.278;22.550;2022-10-15T06:53:49;25.50;23.00;13.75
72854;PMS7003;60991;51.278;22.550;2022-10-15T06:55:19;22.25;21.25;13.75
72854;PMS7003;60991;51.278;22.550;2022-10-15T06:56:50;23.00;21.00;13.75
72854;PMS7003;60991;51.278;22.550;2022-10-15T06:58:22;20.00;16.75;12.25
72854;PMS7003;60991;51.278;22.550;2022-10-15T06:59:53;24.00;18.75;12.75
72854;PMS7003;60991;51.278;22.550;2022-10-15T07:01:24;25.75;24.50;14.00
72854;PMS7003;60991;51.278;22.550;2022-10-15T07:02:54;18.50;16.75;11.00
72854;PMS7003;60991;51.278;22.550;2022-10-15T07:04:24;24.75;21.75;12.00
72854;PMS7003;60991;51.278;22.550;2022-10-15T07:05:55;24.00;21.00;14.25
72854;PMS7003;60991;51.278;22.550;2022-10-15T07:07:25;18.00;16.25;11.00
72854;PMS7003;60991;51.278;22.550;2022-10-15T07:08:55;20.75;19.50;13.00
72854;PMS7003;60991;51.278;22.550;2022-10-15T07:10:26;21.50;20.00;11.00
72854;PMS7003;60991;51.278;22.550;2022-10-15T07:11:56;21.50;17.50;13.00
72854;PMS7003;60991;51.278;22.550;2022-10-15T07:13:26;26.00;23.00;15.00
72854;PMS7003;60991;51.278;22.550;2022-10-15T07:14:58;23.75;21.25;14.00
72854;PMS7003;60991;51.278;22.550;2022-10-15T07:16:28;22.25;17.25;12.75
72854;PMS7003;60991;51.278;22.550;2022-10-15T07:17:58;22.50;20.50;14.25
72854;PMS7003;60991;51.278;22.550;2022-10-15T07:19:28;24.25;22.00;12.25
72854;PMS7003;60991;51.278;22.550;2022-10-15T07:20:59;22.00;19.25;13.50
72854;PMS7003;60991;51.278;22.550;2022-10-15T07:22:29;27.75;21.50;12.75
72854;PMS7003;60991;51.278;22.550;2022-10-15T07:23:59;21.25;20.25;12.25
72854;PMS7003;60991;51.278;22.550;2022-10-15T07:25:30;18.00;17.00;12.00
72854;PMS7003;60991;51.278;22.550;2022-10-15T07:27:00;26.50;19.00;11.50
72854;PMS7003;60991;51.278;22.550;2022-10-15T07:28:31;24.00;21.50;13.50
72854;PMS7003;60991;51.278;22.550;2022-10-15T07:30:02;24.00;18.00;13.00
72854;PMS7003;60991;51.278;22.550;2022-10-15T07:31:33;19.50;17.75;12.50
72854;PMS7003;60991;51.278;22.550;2022-10-15T07:33:04;18.75;18.75;12.75
72854;PMS7003;60991;51.278;22.550;2022-10-15T07:34:34;19.75;19.75;12.75
72854;PMS7003;60991;51.278;22.550;2022-10-15T07:36:05;21.75;20.00;13.75
72854;PMS7003;60991;51.278;22.550;2022-10-15T07:37:37;21.25;18.00;11.25
72854;PMS7003;60991;51.278;22.550;2022-10-15T07:39:08;22.00;19.75;13.00
72854;PMS7003;60991;51.278;22.550;2022-10-15T07:40:38;23.50;21.25;13.25
72854;PMS7003;60991;51.278;22.550;2022-10-15T07:42:09;20.25;18.00;12.50
72854;PMS7003;60991;51.278;22.550;2022-10-15T07:43:39;18.25;17.50;12.75
72854;PMS7003;60991;51.278;22.550;2022-10-15T07:45:09;18.50;18.25;11.25
72854;PMS7003;60991;51.278;22.550;2022-10-15T07:46:40;21.75;19.00;11.25
72854;PMS7003;60991;51.278;22.550;2022-10-15T07:48:10;22.75;19.75;14.00
72854;PMS7003;60991;51.278;22.550;2022-10-15T07:49:40;19.00;19.00;10.50
72854;PMS7003;60991;51.278;22.550;2022-10-15T07:51:10;16.50;16.25;11.25
72854;PMS7003;60991;51.278;22.550;2022-10-15T07:52:41;23.75;19.25;13.00
72854;PMS7003;60991;51.278;22.550;2022-10-15T07:54:11;23.75;18.75;10.50
72854;PMS7003;60991;51.278;22.550;2022-10-15T07:55:41;18.50;17.00;12.50
72854;PMS7003;60991;51.278;22.550;2022-10-15T07:57:11;18.75;18.75;13.25
72854;PMS7003;60991;51.278;22.550;2022-10-15T07:58:42;18.50;18.50;13.00
72854;PMS7003;60991;51.278;22.550;2022-10-15T08:00:12;22.00;21.00;13.75
72854;PMS7003;60991;51.278;22.550;2022-10-15T08:01:43;20.00;17.25;10.00
72854;PMS7003;60991;51.278;22.550;2022-10-15T08:03:13;18.00;17.00;12.50
72854;PMS7003;60991;51.278;22.550;2022-10-15T08:04:43;22.50;18.75;11.25
72854;PMS7003;60991;51.278;22.550;2022-10-15T08:06:14;16.50;16.50;10.50
72854;PMS7003;60991;51.278;22.550;2022-10-15T08:07:44;19.25;18.00;12.00
72854;PMS7003;60991;51.278;22.550;2022-10-15T08:09:14;19.25;17.25;10.75
72854;PMS7003;60991;51.278;22.550;2022-10-15T08:10:45;21.00;19.00;12.50
72854;PMS7003;60991;51.278;22.550;2022-10-15T08:12:16;22.50;21.25;14.25
72854;PMS7003;60991;51.278;22.550;2022-10-15T08:13:46;20.00;19.25;11.75
72854;PMS7003;60991;51.278;22.550;2022-10-15T08:15:16;19.00;19.00;13.00
72854;PMS7003;60991;51.278;22.550;2022-10-15T08:16:47;20.75;19.00;12.50
72854;PMS7003;60991;51.278;22.550;2022-10-15T08:18:17;22.25;17.50;11.00
72854;PMS7003;60991;51.278;22.550;2022-10-15T08:19:47;24.50;20.50;12.50
72854;PMS7003;60991;51.278;22.550;2022-10-15T08:21:17;25.50;20.25;12.25
72854;PMS7003;60991;51.278;22.550;2022-10-15T08:22:48;19.50;18.25;13.00
72854;PMS7003;60991;51.278;22.550;2022-10-15T08:24:18;23.25;20.25;13.75
72854;PMS7003;60991;51.278;22.550;2022-10-15T08:25:48;21.50;19.25;11.25
72854;PMS7003;60991;51.278;22.550;2022-10-15T08:27:19;27.25;18.00;12.00
72854;PMS7003;60991;51.278;22.550;2022-10-15T08:28:49;19.25;19.25;10.75
72854;PMS7003;60991;51.278;22.550;2022-10-15T08:30:19;19.50;19.50;11.75
72854;PMS7003;60991;51.278;22.550;2022-10-15T08:31:49;22.00;20.00;12.75
72854;PMS7003;60991;51.278;22.550;2022-10-15T08:33:19;24.25;23.50;13.50
72854;PMS7003;60991;51.278;22.550;2022-10-15T08:34:50;18.00;17.00;10.75
72854;PMS7003;60991;51.278;22.550;2022-10-15T08:36:20;19.50;16.25;11.00
72854;PMS7003;60991;51.278;22.550;2022-10-15T08:37:52;25.00;18.25;12.50
72854;PMS7003;60991;51.278;22.550;2022-10-15T08:39:23;23.75;22.75;12.50
72854;PMS7003;60991;51.278;22.550;2022-10-15T08:40:54;22.50;18.00;11.25
72854;PMS7003;60991;51.278;22.550;2022-10-15T08:42:35;21.75;21.50;13.25
72854;PMS7003;60991;51.278;22.550;2022-10-15T08:44:17;23.75;20.50;13.00
72854;PMS7003;60991;51.278;22.550;2022-10-15T08:46:08;22.50;19.00;13.50
72854;PMS7003;60991;51.278;22.550;2022-10-15T08:47:46;22.50;19.00;12.50
72854;PMS7003;60991;51.278;22.550;2022-10-15T08:51:16;24.50;21.00;13.75
72854;PMS7003;60991;51.278;22.550;2022-10-15T08:52:52;21.00;18.75;13.00